createdAt,value
2019-04-03T00:01:50.054Z,96944.44
2019-04-03T00:03:51.581Z,96900.80
2019-04-03T00:05:53.165Z,96937.77
2019-04-03T00:07:54.752Z,96950.66
2019-04-03T00:09:56.393Z,96936.70
2019-04-03T00:11:58.016Z,96944.98
2019-04-03T00:13:59.600Z,96938.16
2019-04-03T00:16:01.228Z,96937.42
2019-04-03T00:18:02.820Z,96932.95
2019-04-03T00:20:04.431Z,96940.19
2019-04-03T00:22:06.024Z,96931.75
2019-04-03T00:24:07.608Z,96929.14
2019-04-03T00:26:09.233Z,96928.05
2019-04-03T00:28:10.903Z,96931.78
2019-04-03T00:30:12.480Z,96927.53
2019-04-03T00:32:14.055Z,96923.76
2019-04-03T00:34:15.636Z,96921.20
2019-04-03T00:36:17.230Z,96916.47
2019-04-03T00:38:18.934Z,96913.83
2019-04-03T00:40:20.482Z,96915.50
2019-04-03T00:42:24.155Z,96904.69
2019-04-03T00:44:24.253Z,96906.70
2019-04-03T00:46:25.411Z,96911.38
2019-04-03T00:48:27.037Z,96902.88
2019-04-03T00:50:28.724Z,96898.27
2019-04-03T00:52:30.257Z,96890.28
2019-04-03T00:54:31.855Z,96897.19
2019-04-03T00:56:33.476Z,96892.61
2019-04-03T00:58:35.060Z,96893.06
2019-04-03T01:00:36.652Z,96886.76
2019-04-03T01:02:38.255Z,96889.83
2019-04-03T01:04:39.897Z,96875.83
2019-04-03T01:06:41.519Z,96881.75
2019-04-03T01:08:43.105Z,96876.96
2019-04-03T01:10:44.711Z,96874.32
2019-04-03T01:12:46.365Z,96876.89
2019-04-03T01:14:47.948Z,96866.31
2019-04-03T01:16:49.532Z,96854.55
2019-04-03T01:18:51.152Z,96859.23
2019-04-03T01:20:52.766Z,96857.22
2019-04-03T01:22:54.353Z,96855.77
2019-04-03T01:24:55.960Z,96853.84
2019-04-03T01:26:57.775Z,96839.23
2019-04-03T01:28:59.205Z,96841.98
2019-04-03T01:31:00.788Z,96850.41
2019-04-03T01:33:02.401Z,96844.54
2019-04-03T01:35:04.016Z,96836.47
2019-04-03T01:37:05.705Z,96840.06
2019-04-03T01:39:07.268Z,96834.14
2019-04-03T01:41:08.862Z,96827.53
2019-04-03T01:43:10.453Z,96838.24
2019-04-03T01:45:12.046Z,96835.59
2019-04-03T01:47:13.628Z,96835.91
2019-04-03T01:49:15.239Z,96824.00
2019-04-03T01:51:16.848Z,96821.47
2019-04-03T01:53:18.497Z,96822.84
2019-04-03T01:55:20.091Z,96823.39
2019-04-03T01:57:21.684Z,96826.38
2019-04-03T01:59:23.286Z,96817.10
2019-04-03T02:01:24.876Z,96815.39
2019-04-03T02:03:26.480Z,96815.08
2019-04-03T02:05:28.221Z,96812.05
2019-04-03T02:07:29.736Z,96812.03
2019-04-03T02:09:31.320Z,96813.73
2019-04-03T02:11:32.966Z,96811.42
2019-04-03T02:13:34.560Z,96806.55
2019-04-03T02:15:36.202Z,96803.16
2019-04-03T02:17:37.804Z,96798.29
2019-04-03T02:19:39.388Z,96794.38
2019-04-03T02:21:41.014Z,96809.23
2019-04-03T02:23:42.604Z,96802.52
2019-04-03T02:25:44.223Z,96802.33
2019-04-03T02:27:45.834Z,96794.48
2019-04-03T02:29:47.419Z,96792.66
2019-04-03T02:31:51.722Z,96791.92
2019-04-03T02:33:50.721Z,96784.92
2019-04-03T02:35:52.317Z,96788.73
2019-04-03T02:37:53.924Z,96790.27
2019-04-03T02:39:59.159Z,96788.77
2019-04-03T02:41:57.346Z,96794.58
2019-04-03T02:43:58.781Z,96795.25
2019-04-03T02:46:00.365Z,96789.78
2019-04-03T02:48:04.564Z,96794.16
2019-04-03T02:50:03.710Z,96787.93
2019-04-03T02:52:05.265Z,96786.34
2019-04-03T02:54:06.919Z,96783.81
2019-04-03T02:56:11.634Z,96778.63
2019-04-03T02:58:10.168Z,96779.69
2019-04-03T03:00:11.855Z,96773.87
2019-04-03T03:02:13.730Z,96822.58
2019-04-03T03:04:15.254Z,96774.81
2019-04-03T03:06:16.804Z,96763.11
2019-04-03T03:08:22.043Z,96775.65
2019-04-03T03:10:20.564Z,96771.31
2019-04-03T03:12:21.676Z,96772.65
2019-04-03T03:14:23.310Z,96773.34
2019-04-03T03:16:25.033Z,96774.81
2019-04-03T03:18:27.236Z,96765.84
2019-04-03T03:20:28.318Z,96767.20
2019-04-03T03:22:29.923Z,96771.84
2019-04-03T03:24:31.795Z,96764.28
2019-04-03T03:26:36.222Z,96768.81
2019-04-03T03:28:34.930Z,96764.33
2019-04-03T03:30:46.055Z,96769.00
2019-04-03T03:32:38.732Z,96757.80
2019-04-03T03:35:07.548Z,96754.05
2019-04-03T03:36:41.765Z,96755.94
2019-04-03T03:38:43.154Z,96748.55
2019-04-03T03:40:47.472Z,96745.69
2019-04-03T03:42:46.402Z,96745.37
2019-04-03T03:44:47.990Z,96748.56
2019-04-03T03:46:49.605Z,96737.64
2019-04-03T03:48:51.219Z,96735.63
2019-04-03T03:50:55.499Z,96732.85
2019-04-03T03:52:54.470Z,96742.99
2019-04-03T03:54:56.113Z,96737.66
2019-04-03T03:56:57.724Z,96743.62
2019-04-03T03:58:59.359Z,96740.41
2019-04-03T04:01:01.149Z,96741.36
2019-04-03T04:03:02.615Z,96738.73
2019-04-03T04:05:04.265Z,96740.37
2019-04-03T04:07:05.910Z,96738.00
2019-04-03T04:09:07.526Z,96742.02
2019-04-03T04:11:09.173Z,96732.02
2019-04-03T04:13:13.882Z,96747.80
2019-04-03T04:15:12.426Z,96745.43
2019-04-03T04:17:16.771Z,96744.73
2019-04-03T04:19:15.697Z,96744.44
2019-04-03T04:21:17.342Z,96744.16
2019-04-03T04:23:23.003Z,96742.52
2019-04-03T04:25:20.627Z,96744.44
2019-04-03T04:27:22.220Z,96737.06
2019-04-03T04:29:23.987Z,96731.06
2019-04-03T04:31:25.454Z,96733.28
2019-04-03T04:33:27.060Z,96730.17
2019-04-03T04:35:28.673Z,96731.31
2019-04-03T04:37:30.301Z,96729.91
2019-04-03T04:39:31.948Z,96725.19
2019-04-03T04:41:33.647Z,96734.88
2019-04-03T04:43:35.443Z,96738.25
2019-04-03T04:45:36.880Z,96736.47
2019-04-03T04:47:38.480Z,96735.50
2019-04-03T04:49:40.109Z,96737.92
2019-04-03T04:51:41.909Z,96739.17
2019-04-03T04:53:43.462Z,96735.70
2019-04-03T04:55:45.035Z,96733.14
2019-04-03T04:57:46.645Z,96734.70
2019-04-03T04:59:48.247Z,96732.64
2019-04-03T05:01:49.872Z,96730.28
2019-04-03T05:03:51.957Z,96733.67
2019-04-03T05:05:53.148Z,96730.23
2019-04-03T05:07:54.997Z,96732.36
2019-04-03T05:09:56.506Z,96730.70
2019-04-03T05:11:58.111Z,96728.42
2019-04-03T05:13:59.751Z,96732.56
2019-04-03T05:16:01.519Z,96737.23
2019-04-03T05:18:03.060Z,96735.09
2019-04-03T05:20:04.634Z,96736.77
2019-04-03T05:22:06.248Z,96732.02
2019-04-03T05:24:12.861Z,96735.10
2019-04-03T05:26:09.771Z,96736.47
2019-04-03T05:28:11.205Z,96733.52
2019-04-03T05:30:12.800Z,96739.72
2019-04-03T05:32:14.411Z,96731.37
2019-04-03T05:34:16.009Z,96734.66
2019-04-03T05:36:18.316Z,96728.59
2019-04-03T05:38:21.706Z,96727.77
2019-04-03T05:40:20.866Z,96724.34
2019-04-03T05:42:22.476Z,96721.81
2019-04-03T05:44:24.142Z,96713.92
2019-04-03T05:46:25.752Z,96712.09
2019-04-03T05:48:27.361Z,96717.84
2019-04-03T05:50:29.073Z,96710.67
2019-04-03T05:52:30.628Z,96707.70
2019-04-03T05:54:32.341Z,96710.84
2019-04-03T05:56:33.914Z,96709.76
2019-04-03T05:58:35.515Z,96720.84
2019-04-03T06:00:38.136Z,96710.31
2019-04-03T06:02:38.756Z,96706.31
2019-04-03T06:04:41.494Z,96714.76
2019-04-03T06:06:42.048Z,96710.67
2019-04-03T06:08:43.656Z,96672.45
2019-04-03T06:10:45.296Z,96707.25
2019-04-03T06:12:46.889Z,96707.14
2019-04-03T06:14:50.266Z,96700.81
2019-04-03T06:16:50.168Z,96708.11
2019-04-03T06:18:52.051Z,96697.00
2019-04-03T06:20:53.469Z,96700.70
2019-04-03T06:22:55.267Z,96689.59
2019-04-03T06:24:57.098Z,96700.05
2019-04-03T06:26:58.361Z,96707.61
2019-04-03T06:28:59.944Z,96702.22
2019-04-03T06:31:01.580Z,96693.84
2019-04-03T06:33:03.193Z,96699.49
2019-04-03T06:35:04.780Z,96698.19
2019-04-03T06:37:06.364Z,96698.41
2019-04-03T06:39:08.009Z,96695.58
2019-04-03T06:41:09.656Z,96697.58
2019-04-03T06:43:11.264Z,96700.11
2019-04-03T06:45:15.427Z,96707.36
2019-04-03T06:47:14.507Z,96698.89
2019-04-03T06:49:16.164Z,96705.56
2019-04-03T06:51:17.848Z,96696.61
2019-04-03T06:53:19.631Z,96695.75
2019-04-03T06:55:21.089Z,96698.30
2019-04-03T06:57:23.017Z,96703.45
2019-04-03T06:59:24.363Z,96695.52
2019-04-03T07:01:25.948Z,96700.09
2019-04-03T07:03:27.531Z,96691.43
2019-04-03T07:32:06.934Z,96693.00
2019-04-03T07:34:08.369Z,96681.80
2019-04-03T07:36:11.578Z,96686.91
2019-04-03T07:38:11.625Z,96641.57
2019-04-03T07:40:13.452Z,96681.12
2019-04-03T07:42:15.031Z,96680.78
2019-04-03T07:44:16.570Z,96675.00
2019-04-03T07:46:18.184Z,96680.16
2019-04-03T07:48:19.800Z,96678.57
2019-04-03T07:50:21.419Z,96687.92
2019-04-03T07:52:23.031Z,96677.71
2019-04-03T08:19:23.566Z,96648.72
2019-04-03T08:23:37.646Z,96656.59
2019-04-03T08:25:38.745Z,96647.54
2019-04-03T08:27:40.336Z,96653.81
2019-04-03T08:29:42.175Z,96653.26
2019-04-03T08:31:46.521Z,96651.16
2019-04-03T08:33:45.188Z,96655.81
2019-04-03T08:35:46.798Z,96647.54
2019-04-03T08:37:48.388Z,96645.56
2019-04-03T08:39:50.152Z,96654.06
2019-04-03T08:41:51.670Z,96652.25
2019-04-03T08:43:53.242Z,96650.34
2019-04-03T08:47:37.132Z,96643.32
2019-04-03T08:49:37.192Z,96657.23
2019-04-03T08:51:38.992Z,96663.86
2019-04-03T09:13:29.696Z,96666.08
2019-04-03T09:15:31.340Z,96659.90
2019-04-03T09:17:34.045Z,96659.34
2019-04-03T09:19:34.599Z,96664.70
2019-04-03T09:21:36.174Z,96650.48
2019-04-03T09:23:37.777Z,96652.95
2019-04-03T09:25:39.355Z,96648.23
2019-04-03T09:27:41.296Z,96643.02
2019-04-03T09:29:44.590Z,96651.59
2019-04-03T09:31:44.224Z,96636.74
2019-04-03T09:33:46.027Z,96639.33
2019-04-03T09:35:47.462Z,96638.20
2019-04-03T09:37:49.080Z,96641.31
2019-04-03T09:39:50.664Z,96658.80
2019-04-03T09:41:52.304Z,96663.75
2019-04-03T09:43:54.652Z,96650.42
2019-04-03T09:45:55.866Z,96633.07
2019-04-03T09:47:57.284Z,96650.70
2019-04-03T09:49:58.867Z,96646.33
2019-04-03T09:52:00.466Z,96649.30
2019-04-03T09:54:02.087Z,96642.84
2019-04-03T09:56:03.692Z,96640.79
2019-04-03T09:58:05.652Z,96645.44
2019-04-03T10:00:09.897Z,96642.46
2019-04-03T10:02:09.226Z,96639.01
2019-04-03T10:04:10.519Z,96637.02
2019-04-03T10:06:12.177Z,96637.02
2019-04-03T10:08:13.878Z,96635.34
2019-04-03T10:10:16.550Z,96638.73
2019-04-03T10:12:17.115Z,96623.00
2019-04-03T10:14:18.711Z,96627.79
2019-04-03T10:16:20.324Z,96621.48
2019-04-03T10:18:22.247Z,96621.78
2019-04-03T10:20:23.569Z,96624.52
2019-04-03T10:22:25.422Z,96613.03
2019-04-03T10:24:26.858Z,96622.55
2019-04-03T10:26:30.807Z,96611.52
2019-04-03T10:28:30.141Z,96617.02
2019-04-03T10:30:31.802Z,96615.72
2019-04-03T10:32:33.597Z,96613.60
2019-04-03T10:34:36.119Z,96610.59
2019-04-03T10:36:36.776Z,96607.95
2019-04-03T10:38:38.834Z,96611.46
2019-04-03T10:40:40.033Z,96609.86
2019-04-03T10:42:41.664Z,96603.16
2019-04-03T10:44:43.302Z,96606.20
2019-04-03T10:46:44.892Z,96602.83
2019-04-03T10:48:46.502Z,96599.05
2019-04-03T10:50:48.293Z,96596.86
2019-04-03T10:52:49.908Z,96607.06
2019-04-03T10:54:51.466Z,96609.05
2019-04-03T10:56:53.179Z,96600.37
2019-04-03T10:58:54.684Z,96607.45
2019-04-03T11:00:58.727Z,96598.08
2019-04-03T11:02:57.983Z,96600.22
2019-04-03T11:05:00.595Z,96604.20
2019-04-03T11:07:01.452Z,96597.39
2019-04-03T11:09:03.235Z,96591.59
2019-04-03T11:11:05.093Z,96592.24
2019-04-03T11:13:06.722Z,96592.21
2019-04-03T11:15:10.796Z,96593.81
2019-04-03T11:17:09.669Z,96592.52
2019-04-03T11:19:11.256Z,96592.63
2019-04-03T11:21:13.494Z,96593.91
2019-04-03T11:23:14.551Z,96583.29
2019-04-03T11:25:16.226Z,96584.18
2019-04-03T11:27:17.856Z,96583.73
2019-04-03T11:29:20.730Z,96576.33
2019-04-03T11:31:26.582Z,96576.24
2019-04-03T11:33:23.736Z,96582.43
2019-04-03T11:35:25.390Z,96581.50
2019-04-03T11:37:27.242Z,96578.53
2019-04-03T11:39:28.827Z,96576.03
2019-04-03T11:41:30.361Z,96574.76
2019-04-03T11:43:32.398Z,96573.06
2019-04-03T11:45:33.798Z,96573.11
2019-04-03T11:47:35.317Z,96574.44
2019-04-03T11:49:36.915Z,96506.77
2019-04-03T11:51:38.529Z,96567.20
2019-04-03T11:53:41.217Z,96564.03
2019-04-03T11:55:42.774Z,96562.25
2019-04-03T11:57:47.430Z,96556.30
2019-04-03T11:59:47.382Z,96552.45
2019-04-03T12:01:47.828Z,96554.25
2019-04-03T12:03:51.145Z,96553.83
2019-04-03T12:05:51.414Z,96553.00
2019-04-03T12:07:55.548Z,96552.52
2019-04-03T12:09:54.416Z,96555.97
2019-04-03T12:11:56.011Z,96551.72
2019-04-03T12:13:57.609Z,96546.98
2019-04-03T12:15:59.435Z,96549.03
2019-04-03T12:18:02.102Z,96545.31
2019-04-03T12:20:02.525Z,96545.83
2019-04-03T12:22:04.213Z,96539.75
2019-04-03T12:24:06.010Z,96539.24
2019-04-03T12:26:10.500Z,96538.61
2019-04-03T12:28:09.153Z,96531.28
2019-04-03T12:30:10.764Z,96537.91
2019-04-03T12:32:12.357Z,96544.18
2019-04-03T12:34:14.083Z,96540.79
2019-04-03T12:36:16.022Z,96537.75
2019-04-03T12:38:17.652Z,96535.31
2019-04-03T12:40:19.441Z,96530.23
2019-04-03T12:42:21.296Z,96527.25
2019-04-03T12:44:22.691Z,96532.05
2019-04-03T12:46:32.818Z,96526.84
2019-04-03T12:48:31.424Z,96525.08
2019-04-03T12:50:33.008Z,96522.70
2019-04-03T12:52:34.664Z,96515.89
2019-04-03T12:54:36.619Z,96508.24
2019-04-03T12:56:38.207Z,96517.84
2019-04-03T12:58:39.610Z,96509.72
2019-04-03T13:00:41.228Z,96520.73
2019-04-03T13:02:42.817Z,96518.55
2019-04-03T13:04:44.803Z,96467.53
2019-04-03T13:06:46.082Z,96509.87
2019-04-03T13:08:47.681Z,96524.83
2019-04-03T13:10:49.726Z,96513.40
2019-04-03T13:12:51.329Z,96510.36
2019-04-03T13:14:52.936Z,96510.27
2019-04-03T13:16:54.364Z,96513.31
2019-04-03T13:18:56.254Z,96504.19
2019-04-03T13:20:58.192Z,96464.77
2019-04-03T13:22:59.789Z,96507.88
2019-04-03T13:25:01.794Z,96509.70
2019-04-03T13:27:03.408Z,96502.84
2019-04-03T13:29:06.973Z,96498.75
2019-04-03T13:31:06.404Z,96506.13
2019-04-03T13:33:08.014Z,96504.56
2019-04-03T13:35:09.600Z,96501.35
2019-04-03T13:37:11.185Z,96503.89
2019-04-03T13:39:12.814Z,96504.19
2019-04-03T13:41:14.781Z,96496.58
2019-04-03T13:43:17.921Z,96496.26
2019-04-03T13:45:18.305Z,96490.51
2019-04-03T13:47:20.514Z,96490.36
2019-04-03T13:49:22.351Z,96489.83
2019-04-03T13:51:25.368Z,96488.79
2019-04-03T13:53:25.819Z,96485.70
2019-04-03T13:55:28.877Z,96478.77
2019-04-03T13:57:28.657Z,96467.84
2019-04-03T13:59:30.248Z,96469.83
2019-04-03T14:01:31.869Z,96466.44
2019-04-03T14:03:34.155Z,96466.98
2019-04-03T14:05:35.337Z,96464.98
2019-04-03T14:07:40.508Z,96457.02
2019-04-03T14:09:38.651Z,96459.86
2019-04-03T14:11:40.304Z,96458.47
2019-04-03T14:13:43.684Z,96454.28
2019-04-03T14:15:43.524Z,96458.14
2019-04-03T14:17:55.408Z,96432.61
2019-04-03T14:19:50.926Z,96450.03
2019-04-03T14:21:48.460Z,96452.16
2019-04-03T14:23:50.100Z,96446.47
2019-04-03T14:26:03.096Z,96443.58
2019-04-03T14:27:53.354Z,96447.47
2019-04-03T14:29:54.960Z,96442.57
2019-04-03T14:31:56.680Z,96444.85
2019-04-03T14:33:58.485Z,96451.72
2019-04-03T14:36:00.144Z,96446.69
2019-04-03T14:38:01.582Z,96448.86
2019-04-03T14:40:03.328Z,96446.30
2019-04-03T14:42:07.161Z,96442.56
2019-04-03T14:44:08.407Z,96402.28
2019-04-03T14:46:08.533Z,96437.77
2019-04-03T14:48:10.076Z,96441.86
2019-04-03T14:50:11.704Z,96433.69
2019-04-03T14:52:13.305Z,96445.48
2019-04-03T14:54:15.180Z,96435.94
2019-04-03T14:56:16.569Z,96428.89
2019-04-03T14:58:18.223Z,96438.44
2019-04-03T15:00:27.455Z,96421.61
2019-04-03T15:02:23.714Z,96428.90
2019-04-03T15:04:23.150Z,96425.63
2019-04-03T15:06:24.741Z,96423.61
2019-04-03T15:08:26.413Z,96419.86
2019-04-03T15:10:30.675Z,96412.79
2019-04-03T15:12:30.235Z,96420.22
2019-04-03T15:14:31.420Z,96353.75
2019-04-03T15:16:33.307Z,96412.59
2019-04-03T15:18:34.957Z,96413.92
2019-04-03T15:20:36.384Z,96400.06
2019-04-03T15:22:38.130Z,96411.79
2019-04-03T15:24:42.679Z,96409.68
2019-04-03T15:26:41.282Z,96408.91
2019-04-03T15:28:43.129Z,96412.77
2019-04-03T15:30:44.596Z,96411.56
2019-04-03T15:32:46.250Z,96409.30
2019-04-03T15:34:50.535Z,96406.58
2019-04-03T15:36:51.547Z,96361.30
2019-04-03T15:38:51.224Z,96392.84
2019-04-03T15:40:53.260Z,96390.85
2019-04-03T15:42:55.190Z,96397.98
2019-04-03T15:44:57.703Z,96398.39
2019-04-03T15:47:00.740Z,96396.81
2019-04-03T15:48:59.771Z,96396.81
2019-04-03T15:51:01.260Z,96407.05
2019-04-03T15:53:02.852Z,96405.38
2019-04-03T15:55:04.878Z,96398.76
2019-04-03T15:57:06.151Z,96403.80
2019-04-03T15:59:10.339Z,96396.76
2019-04-03T16:01:09.513Z,96400.20
2019-04-03T16:03:11.140Z,96398.27
2019-04-03T16:05:13.399Z,96392.74
2019-04-03T16:07:14.436Z,96401.97
2019-04-03T16:09:18.269Z,96390.63
2019-04-03T16:11:18.146Z,96395.27
2019-04-03T16:13:21.316Z,96398.31
2019-04-03T16:15:22.736Z,96393.58
2019-04-03T16:17:22.705Z,96394.84
2019-04-03T16:19:24.716Z,96390.54
2019-04-03T16:21:27.204Z,96350.87
2019-04-03T16:23:27.581Z,96389.58
2019-04-03T16:25:29.193Z,96393.59
2019-04-03T16:27:30.779Z,96392.94
2019-04-03T16:29:32.372Z,96397.34
2019-04-03T16:31:34.001Z,96391.09
2019-04-03T16:33:36.761Z,96394.63
2019-04-03T16:35:37.491Z,96387.96
2019-04-03T16:37:38.919Z,96391.06
2019-04-03T16:39:40.535Z,96386.94
2019-04-03T16:41:44.041Z,96341.53
2019-04-03T16:43:43.792Z,96386.30
2019-04-03T16:45:45.385Z,96385.48
2019-04-03T16:47:47.036Z,96385.59
2019-04-03T16:49:48.652Z,96375.92
2019-04-03T16:51:50.324Z,96385.84
2019-04-03T16:53:51.972Z,96382.88
2019-04-03T16:55:53.993Z,96378.30
2019-04-03T16:57:55.602Z,96377.55
2019-04-03T16:59:56.908Z,96380.56
2019-04-03T17:01:58.981Z,96369.20
2019-04-03T17:04:02.706Z,96370.59
2019-04-03T17:06:02.097Z,96372.35
2019-04-03T17:08:03.724Z,96370.30
2019-04-03T17:10:05.137Z,96369.52
2019-04-03T17:12:06.761Z,96373.37
2019-04-03T17:14:08.501Z,96372.20
2019-04-03T17:16:10.020Z,96371.87
2019-04-03T17:18:11.645Z,96374.47
2019-04-03T17:20:13.237Z,96376.99
2019-04-03T17:22:14.862Z,96375.17
2019-04-03T17:24:17.853Z,96373.78
2019-04-03T17:26:18.180Z,96381.64
2019-04-03T17:28:19.939Z,96376.02
2019-04-03T17:30:21.470Z,96377.58
2019-04-03T17:32:23.451Z,96382.65
2019-04-03T17:34:24.802Z,96381.02
2019-04-03T17:36:26.788Z,96380.67
2019-04-03T17:38:31.059Z,96379.06
2019-04-03T17:40:29.747Z,96381.66
2019-04-03T17:42:31.365Z,96386.45
2019-04-03T17:44:32.984Z,96373.81
2019-04-03T17:46:34.566Z,96386.22
2019-04-03T17:48:36.199Z,96390.57
2019-04-03T17:50:37.788Z,96389.77
2019-04-03T17:52:39.411Z,96384.35
2019-04-03T17:54:41.028Z,96393.77
2019-04-03T17:56:43.081Z,96388.86
2019-04-03T17:58:45.990Z,96416.38
2019-04-03T18:00:45.995Z,96382.22
2019-04-03T18:02:47.575Z,96378.24
2019-04-03T18:04:51.146Z,96376.78
2019-04-03T18:06:50.886Z,96376.09
2019-04-03T18:08:52.486Z,96404.77
2019-04-03T18:10:54.122Z,96375.73
2019-04-03T18:12:55.717Z,96380.08
2019-04-03T18:14:57.503Z,96376.23
2019-04-03T18:17:01.172Z,96373.66
2019-04-03T18:19:00.732Z,96383.88
2019-04-03T18:21:02.351Z,96377.92
2019-04-03T18:23:03.944Z,96377.50
2019-04-03T18:25:07.944Z,96376.87
2019-04-03T18:27:07.218Z,96378.12
2019-04-03T18:29:09.059Z,96384.41
2019-04-03T18:31:11.819Z,96371.44
2019-04-03T18:33:12.351Z,96333.88
2019-04-03T18:35:14.899Z,96377.42
2019-04-03T18:37:16.494Z,96374.56
2019-04-03T18:39:18.160Z,96334.63
2019-04-03T18:41:19.757Z,96380.45
2019-04-03T18:43:21.870Z,96381.11
2019-04-03T18:45:25.607Z,96372.16
2019-04-03T18:47:24.668Z,96370.19
2019-04-03T18:49:26.302Z,96367.53
2019-04-03T18:51:27.896Z,96376.84
2019-04-03T18:53:29.536Z,96371.91
2019-04-03T18:55:31.143Z,96371.52
2019-04-03T18:57:32.736Z,96378.81
2019-04-03T18:59:34.323Z,96377.15
2019-04-03T19:01:38.010Z,96379.42
2019-04-03T19:03:37.666Z,96374.02
2019-04-03T19:05:39.265Z,96378.78
2019-04-03T19:07:41.444Z,96381.44
2019-04-03T19:09:43.064Z,96384.04
2019-04-03T19:11:44.732Z,96371.69
2019-04-03T19:13:49.150Z,96374.63
2019-04-03T19:15:47.990Z,96373.67
2019-04-03T19:17:59.298Z,96372.25
2019-04-03T19:19:51.279Z,96367.94
2019-04-03T19:21:54.667Z,96357.84
2019-04-03T19:23:54.584Z,96361.22
2019-04-03T19:25:56.177Z,96355.36
2019-04-03T19:27:57.788Z,96348.16
2019-04-03T19:29:59.384Z,96346.31
2019-04-03T19:32:01.060Z,96340.94
2019-04-03T19:34:02.708Z,96340.30
2019-04-03T19:36:04.322Z,96325.34
2019-04-03T19:38:05.944Z,96327.84
2019-04-03T19:40:09.589Z,96326.75
2019-04-03T19:42:09.240Z,96318.16
2019-04-03T19:44:10.829Z,96319.75
2019-04-03T19:46:12.492Z,96313.19
2019-04-03T19:48:14.119Z,96315.38
2019-04-03T19:50:15.738Z,96315.27
2019-04-03T19:52:17.384Z,96313.01
2019-04-03T19:54:19.053Z,96315.75
2019-04-03T19:56:20.665Z,96313.77
2019-04-03T19:58:22.257Z,96318.50
2019-04-03T20:00:23.873Z,96320.00
2019-04-03T20:02:25.505Z,96316.20
2019-04-03T20:04:27.120Z,96313.19
2019-04-03T20:06:28.718Z,96312.02
2019-04-03T20:08:30.630Z,96314.39
2019-04-03T20:10:33.743Z,96315.96
2019-04-03T20:12:33.579Z,96315.49
2019-04-03T20:14:35.233Z,96310.53
2019-04-03T20:16:36.848Z,96318.41
2019-04-03T20:18:38.447Z,96314.00
2019-04-03T20:20:40.068Z,96318.92
2019-04-03T20:22:42.628Z,96321.38
2019-04-03T20:24:44.201Z,96322.62
2019-04-03T20:26:46.658Z,96329.75
2019-04-03T20:28:46.679Z,96323.57
2019-04-03T20:30:48.296Z,96314.03
2019-04-03T20:32:49.899Z,96333.11
2019-04-03T20:34:51.532Z,96331.14
2019-04-03T20:36:54.992Z,96322.06
2019-04-03T20:38:57.554Z,96319.19
2019-04-03T20:40:56.540Z,96295.89
2019-04-03T20:42:58.150Z,96326.30
2019-04-03T20:44:59.770Z,96320.42
2019-04-03T20:47:01.391Z,96325.30
2019-04-03T20:49:03.389Z,96319.97
2019-04-03T20:51:04.679Z,96315.48
2019-04-03T20:53:06.269Z,96314.61
2019-04-03T20:55:07.888Z,96307.97
2019-04-03T20:57:09.497Z,96317.86
2019-04-03T20:59:12.021Z,96313.26
2019-04-03T21:01:12.732Z,96314.30
2019-04-03T21:03:14.320Z,96318.84
2019-04-03T21:05:17.823Z,96323.31
2019-04-03T21:07:17.603Z,96315.70
2019-04-03T21:09:19.220Z,96324.42
2019-04-03T21:11:20.835Z,96327.59
2019-04-03T21:13:22.456Z,96328.16
2019-04-03T21:15:24.108Z,96312.83
2019-04-03T21:17:25.733Z,96320.52
2019-04-03T21:19:27.349Z,96320.87
2019-04-03T21:21:28.976Z,96317.53
2019-04-03T21:23:33.277Z,96314.48
2019-04-03T21:25:32.293Z,96314.53
2019-04-03T21:27:33.900Z,96312.79
2019-04-03T21:29:35.483Z,96318.33
2019-04-03T21:31:37.099Z,96310.46
2019-04-03T21:33:38.693Z,96313.03
2019-04-03T21:35:40.339Z,96317.64
2019-04-03T21:37:41.953Z,96313.75
2019-04-03T21:39:44.385Z,96317.59
2019-04-03T21:41:45.255Z,96320.32
2019-04-03T21:43:46.868Z,96313.72
2019-04-03T21:45:48.516Z,96312.34
2019-04-03T21:47:50.121Z,96296.19
2019-04-03T21:49:51.708Z,96300.39
2019-04-03T21:51:53.410Z,96312.51
2019-04-03T21:53:56.479Z,96309.56
2019-04-03T21:55:56.653Z,96307.42
2019-04-03T21:57:58.231Z,96304.83
2019-04-03T21:59:59.846Z,96309.95
2019-04-03T22:02:01.493Z,96304.58
2019-04-03T22:04:03.113Z,96305.27
2019-04-03T22:06:04.820Z,96311.84
2019-04-03T22:08:06.472Z,96313.23
2019-04-03T22:10:08.983Z,96308.23
2019-04-03T22:12:09.774Z,96312.25
2019-04-03T22:14:11.698Z,96307.74
2019-04-03T22:16:13.054Z,96307.33
2019-04-03T22:18:14.648Z,96298.55
2019-04-03T22:20:16.233Z,96299.58
2019-04-03T22:22:17.984Z,96297.78
2019-04-03T22:24:19.596Z,96295.77
2019-04-03T22:26:21.211Z,96294.72
2019-04-03T22:28:22.804Z,96298.98
2019-04-03T22:30:24.417Z,96294.63
2019-04-03T22:32:26.036Z,96298.02
2019-04-03T22:34:27.971Z,96294.27
2019-04-03T22:36:29.327Z,96295.55
2019-04-03T22:38:31.396Z,96296.00
2019-04-03T22:40:32.991Z,96300.83
2019-04-03T22:42:34.608Z,96298.30
2019-04-03T22:44:36.248Z,96297.33
2019-04-03T22:46:37.840Z,96296.31
2019-04-03T22:48:39.428Z,96293.30
2019-04-03T22:50:41.031Z,96297.03
2019-04-03T22:52:43.105Z,96301.68
2019-04-03T22:54:44.732Z,96295.55
2019-04-03T22:56:47.773Z,96303.30
2019-04-03T22:58:47.999Z,96303.22
2019-04-03T23:00:49.610Z,96299.84
2019-04-03T23:02:51.213Z,96302.19
2019-04-03T23:04:52.806Z,96307.09
2019-04-03T23:06:54.397Z,96296.67
2019-04-03T23:08:55.989Z,96301.09
2019-04-03T23:11:00.743Z,96305.23
2019-04-03T23:12:59.241Z,96296.50
2019-04-03T23:15:00.888Z,96291.22
2019-04-03T23:17:02.507Z,96294.39
2019-04-03T23:19:04.133Z,96293.66
2019-04-03T23:21:05.748Z,96298.08
2019-04-03T23:23:07.368Z,96293.50
2019-04-03T23:25:08.992Z,96286.77
2019-04-03T23:27:10.639Z,96284.30
2019-04-03T23:29:12.234Z,96284.39
2019-04-03T23:31:13.862Z,96276.85
2019-04-03T23:33:16.892Z,96281.13
2019-04-03T23:35:17.169Z,96284.06
2019-04-03T23:37:18.791Z,96277.68
2019-04-03T23:39:20.405Z,96314.08
2019-04-03T23:41:21.998Z,96271.86
2019-04-03T23:43:23.611Z,96271.80
2019-04-03T23:45:25.212Z,96266.79
2019-04-03T23:47:26.800Z,96268.13
2019-04-03T23:49:28.409Z,96269.94
2019-04-03T23:51:30.002Z,96267.11
2019-04-03T23:53:32.611Z,96270.64
2019-04-03T23:55:34.340Z,96269.10
2019-04-03T23:57:34.959Z,96261.20
2019-04-03T23:59:36.576Z,96261.23
